Time;durP1;ratioP1;P1;durP2;ratioP2;P2;SDS_P1;SDS_P2;PMS_P1;PMS_P2;Temp;Humidity;BMP_temperature;BMP_pressure;BME280_temperature;BME280_humidity;BME280_pressure;Samples;Min_cycle;Max_cycle;Signal;HPM_P1;HPM_P2
2023/06/27 00:01:43;;;;;;;0.00;0.00;;;19.20;72.40;;;;;;5050628;28;20177;-61
2023/06/27 00:04:09;;;;;;;0.00;0.00;;;19.10;72.70;;;;;;5050455;28;20189;-61
2023/06/27 00:06:40;;;;;;;0.00;0.00;;;19.10;72.90;;;;;;5050381;28;20264;-61
2023/06/27 00:09:12;;;;;;;0.00;0.00;;;19.00;73.20;;;;;;5050506;28;20189;-61
2023/06/27 00:11:39;;;;;;;0.00;0.00;;;19.00;73.50;;;;;;5049442;28;20267;-61
2023/06/27 00:14:06;;;;;;;0.35;0.35;;;18.90;73.60;;;;;;5050022;28;20189;-61
2023/06/27 00:16:32;;;;;;;0.00;0.00;;;18.90;73.70;;;;;;5050355;28;20188;-61
2023/06/27 00:19:03;;;;;;;0.00;0.00;;;18.90;73.90;;;;;;5043781;28;20177;-61
2023/06/27 00:21:32;;;;;;;0.00;0.00;;;18.80;74.20;;;;;;5048697;28;20185;-61
2023/06/27 00:23:59;;;;;;;0.00;0.00;;;18.80;74.40;;;;;;5042869;28;20528;-61
2023/06/27 00:26:25;;;;;;;0.00;0.00;;;18.80;75.10;;;;;;5042409;28;20194;-62
2023/06/27 00:28:50;;;;;;;0.00;0.00;;;18.70;75.30;;;;;;5053555;28;20807;-61
2023/06/27 00:34:38;;;;;;;0.10;0.10;;;18.70;75.40;;;;;;5051412;28;20269;-61
2023/06/27 00:37:04;;;;;;;0.00;0.00;;;18.70;75.50;;;;;;5042927;28;20593;-62
2023/06/27 00:39:31;;;;;;;0.00;0.00;;;18.60;75.80;;;;;;5053919;28;20581;-61
2023/06/27 00:41:58;;;;;;;0.00;0.00;;;18.60;76.50;;;;;;5054052;28;20185;-61
2023/06/27 00:44:24;;;;;;;0.00;0.00;;;18.60;75.90;;;;;;5054037;28;20185;-61
2023/06/27 00:46:51;;;;;;;0.00;0.00;;;18.60;76.40;;;;;;5053374;28;20587;-61
2023/06/27 00:49:19;;;;;;;0.00;0.00;;;18.50;76.50;;;;;;5053895;28;20200;-61
2023/06/27 00:51:47;;;;;;;0.00;0.00;;;18.50;76.90;;;;;;5053650;28;20580;-63
2023/06/27 00:54:15;;;;;;;0.00;0.00;;;18.50;76.80;;;;;;5036426;28;20205;-62
2023/06/27 00:56:41;;;;;;;0.00;0.00;;;18.50;77.10;;;;;;5053726;28;20174;-60
2023/06/27 00:59:06;;;;;;;0.00;0.00;;;18.40;77.30;;;;;;5053775;28;20188;-60
2023/06/27 01:01:32;;;;;;;0.00;0.00;;;18.40;77.40;;;;;;5053938;28;20185;-61
2023/06/27 01:03:58;;;;;;;0.00;0.00;;;18.30;77.80;;;;;;5053837;28;20197;-61
2023/06/27 01:06:44;;;;;;;0.00;0.00;;;18.30;78.10;;;;;;5053702;28;20221;-61
2023/06/27 01:09:20;;;;;;;0.00;0.00;;;18.30;78.30;;;;;;5048833;28;20260;-61
2023/06/27 01:11:52;;;;;;;0.00;0.00;;;18.20;78.50;;;;;;5053430;28;20270;-61
2023/06/27 01:14:19;;;;;;;0.00;0.00;;;18.20;78.70;;;;;;5053818;28;20185;-61
2023/06/27 01:16:46;;;;;;;0.00;0.00;;;18.20;78.90;;;;;;5053357;28;20189;-61
2023/06/27 01:19:13;;;;;;;0.00;0.00;;;18.10;79.30;;;;;;5053554;28;20209;-61
2023/06/27 01:21:40;;;;;;;0.00;0.00;;;18.10;79.60;;;;;;5053737;28;20260;-62
2023/06/27 01:24:07;;;;;;;0.00;0.00;;;18.00;79.90;;;;;;5053700;28;20797;-62
2023/06/27 01:26:33;;;;;;;0.00;0.00;;;18.00;80.60;;;;;;5041574;28;20236;-61
2023/06/27 01:28:59;;;;;;;0.00;0.00;;;18.00;80.90;;;;;;5052665;28;20201;-62
2023/06/27 01:32:14;;;;;;;0.00;0.00;;;17.90;81.10;;;;;;5051938;28;20213;-61
2023/06/27 01:34:54;;;;;;;0.00;0.00;;;17.90;81.60;;;;;;5052786;28;20273;-62
2023/06/27 01:37:25;;;;;;;0.00;0.00;;;17.80;82.70;;;;;;5052988;28;20173;-62
2023/06/27 01:40:19;;;;;;;0.00;0.00;;;17.80;83.20;;;;;;5051901;28;20185;-62
2023/06/27 01:42:50;;;;;;;0.00;0.00;;;17.70;84.00;;;;;;5050919;28;20205;-62
2023/06/27 01:45:17;;;;;;;0.00;0.00;;;17.60;85.40;;;;;;5052746;28;20177;-62
2023/06/27 01:47:44;;;;;;;0.00;0.00;;;17.60;86.30;;;;;;5052883;28;20565;-62
2023/06/27 01:50:11;;;;;;;0.00;0.00;;;17.50;87.00;;;;;;5052711;28;20208;-62
2023/06/27 01:52:37;;;;;;;0.10;0.10;;;17.40;87.90;;;;;;5052898;28;20185;-62
2023/06/27 01:55:03;;;;;;;0.00;0.00;;;17.40;88.60;;;;;;5052978;28;20837;-62
2023/06/27 01:57:28;;;;;;;0.00;0.00;;;17.40;89.80;;;;;;5052717;28;20208;-62
2023/06/27 01:59:54;;;;;;;0.00;0.00;;;17.40;90.00;;;;;;5052636;28;20699;-62
2023/06/27 02:02:20;;;;;;;0.10;0.10;;;17.30;90.50;;;;;;5052698;28;20177;-64
2023/06/27 02:04:47;;;;;;;0.00;0.00;;;17.30;91.10;;;;;;5052608;28;20182;-62
2023/06/27 02:07:12;;;;;;;0.00;0.00;;;17.20;91.50;;;;;;5052637;28;20177;-62
2023/06/27 02:09:38;;;;;;;0.00;0.00;;;17.20;91.80;;;;;;5052779;28;20235;-62
2023/06/27 02:12:05;;;;;;;0.00;0.00;;;17.20;91.90;;;;;;5052774;28;20255;-62
2023/06/27 02:14:31;;;;;;;0.00;0.00;;;17.30;92.00;;;;;;5052639;28;20178;-62
2023/06/27 02:16:56;;;;;;;0.00;0.00;;;17.30;92.10;;;;;;5052881;28;20186;-62
2023/06/27 02:19:22;;;;;;;0.00;0.00;;;17.30;92.30;;;;;;5052756;28;20204;-62
2023/06/27 02:21:49;;;;;;;0.00;0.00;;;17.20;92.50;;;;;;5052577;28;20256;-62
2023/06/27 02:24:15;;;;;;;0.00;0.00;;;17.20;93.00;;;;;;5052846;28;20170;-62
2023/06/27 02:26:40;;;;;;;0.00;0.00;;;17.10;93.00;;;;;;5039671;28;20273;-62
2023/06/27 02:29:06;;;;;;;0.00;0.00;;;17.10;93.20;;;;;;5041970;28;20189;-62
2023/06/27 02:31:31;;;;;;;0.00;0.00;;;17.10;93.30;;;;;;5052314;28;20653;-62
2023/06/27 02:33:57;;;;;;;0.00;0.00;;;17.10;93.30;;;;;;5052411;28;20173;-62
2023/06/27 02:36:25;;;;;;;0.00;0.00;;;17.10;93.60;;;;;;5052249;28;20177;-62
2023/06/27 02:38:54;;;;;;;0.00;0.00;;;17.10;94.00;;;;;;5052196;28;20173;-62
2023/06/27 02:41:21;;;;;;;0.00;0.00;;;17.10;94.10;;;;;;5052301;28;20177;-62
2023/06/27 02:43:46;;;;;;;0.00;0.00;;;17.00;94.10;;;;;;5052202;28;20229;-62
2023/06/27 02:46:12;;;;;;;0.00;0.00;;;17.00;94.30;;;;;;5052269;28;20185;-62
2023/06/27 02:48:37;;;;;;;0.00;0.00;;;17.00;94.50;;;;;;5051729;28;20165;-62
2023/06/27 02:51:03;;;;;;;0.00;0.00;;;17.00;94.70;;;;;;5052612;28;20217;-62
2023/06/27 02:53:28;;;;;;;0.00;0.00;;;17.00;94.80;;;;;;5050494;28;20177;-62
2023/06/27 02:55:54;;;;;;;0.00;0.00;;;17.00;95.00;;;;;;5052106;28;20640;-62
2023/06/27 02:58:19;;;;;;;0.00;0.00;;;16.90;95.20;;;;;;5050659;28;20174;-62
2023/06/27 03:00:45;;;;;;;0.00;0.00;;;16.90;95.30;;;;;;5052059;28;20169;-62
2023/06/27 03:03:10;;;;;;;0.00;0.00;;;16.90;95.50;;;;;;5051807;28;20525;-62
2023/06/27 03:05:36;;;;;;;0.00;0.00;;;16.80;95.60;;;;;;5051997;28;20204;-62
2023/06/27 03:08:01;;;;;;;0.00;0.00;;;16.80;95.60;;;;;;5051809;28;20185;-62
2023/06/27 03:10:27;;;;;;;0.00;0.00;;;16.80;95.70;;;;;;5051504;28;20704;-62
2023/06/27 03:12:52;;;;;;;0.00;0.00;;;16.90;95.80;;;;;;5051428;28;20196;-62
2023/06/27 03:15:18;;;;;;;0.00;0.00;;;16.90;95.90;;;;;;5051210;28;20169;-62
2023/06/27 03:17:43;;;;;;;0.00;0.00;;;17.00;95.80;;;;;;5051794;28;20181;-62
2023/06/27 03:20:09;;;;;;;0.00;0.00;;;17.10;95.80;;;;;;5051493;28;20718;-62
2023/06/27 03:22:35;;;;;;;0.00;0.00;;;17.20;95.80;;;;;;5051491;28;20185;-62
2023/06/27 03:25:01;;;;;;;0.00;0.00;;;17.20;95.70;;;;;;5051182;28;20655;-62
2023/06/27 03:27:26;;;;;;;0.00;0.00;;;17.30;95.70;;;;;;5049690;28;20240;-62
2023/06/27 03:29:52;;;;;;;0.00;0.00;;;17.30;95.60;;;;;;5051427;28;20169;-62
2023/06/27 03:32:18;;;;;;;0.00;0.00;;;17.30;95.40;;;;;;5053130;28;20213;-62
2023/06/27 03:34:43;;;;;;;0.00;0.00;;;17.20;95.20;;;;;;5050844;28;20192;-62
2023/06/27 03:37:09;;;;;;;0.00;0.00;;;17.10;95.30;;;;;;5050115;28;20582;-62
2023/06/27 03:39:35;;;;;;;0.00;0.00;;;17.00;95.50;;;;;;5050902;28;20538;-62
2023/06/27 03:42:00;;;;;;;0.00;0.00;;;17.00;95.80;;;;;;5050585;28;20174;-61
2023/06/27 03:44:28;;;;;;;0.00;0.00;;;16.90;95.90;;;;;;5050374;28;20619;-62
2023/06/27 03:46:53;;;;;;;0.00;0.00;;;16.90;96.10;;;;;;5050785;28;20192;-63
2023/06/27 03:49:19;;;;;;;0.00;0.00;;;16.80;96.30;;;;;;5051030;28;20272;-61
2023/06/27 03:51:44;;;;;;;0.00;0.00;;;16.80;96.40;;;;;;5050378;28;20217;-61
2023/06/27 03:54:10;;;;;;;0.00;0.00;;;16.80;96.50;;;;;;5050604;28;20205;-61
2023/06/27 03:56:36;;;;;;;0.00;0.00;;;16.80;96.50;;;;;;5050668;28;20177;-61
2023/06/27 03:59:01;;;;;;;0.00;0.00;;;16.90;96.70;;;;;;5050479;28;20181;-59
2023/06/27 04:01:27;;;;;;;0.00;0.00;;;16.90;96.70;;;;;;5049211;28;20720;-58
2023/06/27 04:03:52;;;;;;;0.00;0.00;;;16.90;96.70;;;;;;5050890;28;20225;-59
2023/06/27 04:06:18;;;;;;;0.00;0.00;;;16.90;96.60;;;;;;5050591;28;20189;-62
2023/06/27 04:08:44;;;;;;;0.00;0.00;;;16.90;96.80;;;;;;5050334;28;20205;-60
2023/06/27 04:11:09;;;;;;;0.00;0.00;;;16.90;96.60;;;;;;5050079;28;20216;-60
2023/06/27 04:13:36;;;;;;;0.00;0.00;;;16.90;96.70;;;;;;5049495;28;20181;-60
2023/06/27 04:16:01;;;;;;;0.00;0.00;;;17.00;96.90;;;;;;5050146;28;20169;-58
2023/06/27 04:18:27;;;;;;;0.00;0.00;;;17.00;96.90;;;;;;5048934;28;20181;-59
2023/06/27 04:20:52;;;;;;;0.00;0.00;;;17.00;96.90;;;;;;5049557;28;20181;-60
2023/06/27 04:23:18;;;;;;;0.00;0.00;;;17.00;97.00;;;;;;5048973;28;20188;-60
2023/06/27 04:25:44;;;;;;;0.00;0.00;;;17.00;97.10;;;;;;5050197;28;20868;-60
2023/06/27 04:28:10;;;;;;;0.00;0.00;;;17.10;97.20;;;;;;5050267;28;20266;-60
2023/06/27 04:30:35;;;;;;;0.00;0.00;;;17.10;97.00;;;;;;5050392;28;20209;-60
2023/06/27 04:33:03;;;;;;;0.00;0.00;;;17.10;96.90;;;;;;5032688;28;20186;-60
2023/06/27 04:35:28;;;;;;;0.52;0.43;;;17.20;97.00;;;;;;5046019;28;20217;-60
2023/06/27 04:37:54;;;;;;;0.00;0.00;;;17.20;96.70;;;;;;5045281;28;20224;-60
2023/06/27 04:40:20;;;;;;;0.00;0.00;;;17.20;96.80;;;;;;5030565;28;20169;-60
2023/06/27 04:42:45;;;;;;;0.00;0.00;;;17.30;96.90;;;;;;5030412;28;20324;-60
2023/06/27 04:45:11;;;;;;;0.00;0.00;;;17.30;97.00;;;;;;5030616;28;20650;-60
2023/06/27 04:47:36;;;;;;;0.00;0.00;;;17.40;96.80;;;;;;5030346;28;20707;-60
2023/06/27 04:50:05;;;;;;;0.00;0.00;;;17.50;96.80;;;;;;5030473;28;20186;-60
2023/06/27 04:52:31;;;;;;;0.00;0.00;;;17.50;96.80;;;;;;5030417;28;20661;-60
2023/06/27 04:54:56;;;;;;;0.00;0.00;;;17.40;96.80;;;;;;5029393;28;20182;-60
2023/06/27 04:57:22;;;;;;;0.00;0.00;;;17.50;96.90;;;;;;5030391;28;20642;-61
2023/06/27 04:59:47;;;;;;;0.00;0.00;;;17.50;97.00;;;;;;5030370;28;20179;-60
2023/06/27 05:02:13;;;;;;;0.00;0.00;;;17.50;97.00;;;;;;5030590;28;20177;-60
2023/06/27 05:04:38;;;;;;;0.00;0.00;;;17.60;97.00;;;;;;5030389;28;20185;-60
2023/06/27 05:07:04;;;;;;;0.00;0.00;;;17.70;96.90;;;;;;5030497;28;20182;-60
2023/06/27 05:09:30;;;;;;;0.00;0.00;;;17.70;96.90;;;;;;5030151;28;20257;-60
2023/06/27 05:11:56;;;;;;;0.00;0.00;;;17.80;97.00;;;;;;5031007;28;20563;-60
2023/06/27 05:14:21;;;;;;;0.00;0.00;;;17.90;96.90;;;;;;5033644;28;20269;-60
2023/06/27 05:16:47;;;;;;;0.00;0.00;;;17.90;96.80;;;;;;5034022;28;20681;-60
2023/06/27 05:19:12;;;;;;;0.00;0.00;;;18.00;96.70;;;;;;5033756;28;20529;-60
2023/06/27 05:21:38;;;;;;;0.00;0.00;;;18.10;96.80;;;;;;5033751;28;20182;-60
2023/06/27 05:24:06;;;;;;;0.00;0.00;;;18.30;96.80;;;;;;5033955;28;20198;-60
2023/06/27 05:26:33;;;;;;;0.00;0.00;;;18.40;96.50;;;;;;5034080;28;20649;-60
2023/06/27 05:28:59;;;;;;;0.00;0.00;;;18.50;96.30;;;;;;5053779;28;20227;-60
2023/06/27 05:31:26;;;;;;;0.00;0.00;;;18.80;96.00;;;;;;5053584;28;20241;-60
2023/06/27 05:33:52;;;;;;;0.00;0.00;;;18.90;95.60;;;;;;5053593;28;20193;-60
2023/06/27 05:36:18;;;;;;;0.00;0.00;;;19.10;95.20;;;;;;5053705;28;20209;-60
2023/06/27 05:38:43;;;;;;;0.00;0.00;;;19.30;95.20;;;;;;5045817;28;20204;-60
2023/06/27 05:41:09;;;;;;;0.00;0.00;;;19.50;95.00;;;;;;5053620;28;20177;-60
2023/06/27 05:43:34;;;;;;;0.05;0.05;;;19.70;94.40;;;;;;5053443;28;20174;-61
2023/06/27 05:46:00;;;;;;;0.00;0.00;;;20.00;94.30;;;;;;5052316;28;20174;-60
2023/06/27 05:48:25;;;;;;;0.00;0.00;;;20.40;93.80;;;;;;5053205;28;20504;-60
2023/06/27 05:50:51;;;;;;;0.08;0.08;;;20.80;93.20;;;;;;5053247;28;20605;-61
2023/06/27 05:53:16;;;;;;;0.00;0.00;;;21.20;92.20;;;;;;5053334;28;20173;-61
2023/06/27 05:55:42;;;;;;;0.00;0.00;;;21.60;90.60;;;;;;5053396;28;20189;-60
2023/06/27 05:58:07;;;;;;;0.00;0.00;;;21.70;89.20;;;;;;5053276;28;20184;-60
2023/06/27 06:00:33;;;;;;;0.00;0.00;;;21.80;88.00;;;;;;5053013;28;20261;-60
2023/06/27 06:02:58;;;;;;;0.00;0.00;;;21.80;87.60;;;;;;5053152;28;20177;-58
2023/06/27 06:05:24;;;;;;;0.00;0.00;;;21.80;87.60;;;;;;5053052;28;20204;-59
2023/06/27 06:07:49;;;;;;;0.00;0.00;;;21.70;87.10;;;;;;5053026;28;20207;-58
2023/06/27 06:10:15;;;;;;;0.00;0.00;;;21.70;87.20;;;;;;5052895;28;20178;-58
2023/06/27 06:12:43;;;;;;;0.00;0.00;;;21.80;85.30;;;;;;5052630;28;20177;-58
2023/06/27 06:15:08;;;;;;;0.00;0.00;;;21.90;84.70;;;;;;5052948;28;20182;-58
2023/06/27 06:17:34;;;;;;;0.00;0.00;;;22.10;83.70;;;;;;5052497;28;20666;-58
2023/06/27 06:20:00;;;;;;;0.00;0.00;;;22.20;83.80;;;;;;5052786;28;20227;-58
2023/06/27 06:22:25;;;;;;;0.00;0.00;;;22.40;83.10;;;;;;5052718;28;20193;-58
2023/06/27 06:24:51;;;;;;;0.00;0.00;;;22.80;83.20;;;;;;5051645;28;20173;-58
2023/06/27 06:27:16;;;;;;;0.00;0.00;;;23.40;82.30;;;;;;5052366;28;20259;-58
2023/06/27 06:29:42;;;;;;;0.00;0.00;;;24.00;81.00;;;;;;5052614;28;20292;-58
2023/06/27 06:32:07;;;;;;;0.13;0.00;;;24.70;78.50;;;;;;5052517;28;20688;-58
2023/06/27 06:34:33;;;;;;;0.00;0.00;;;25.40;75.30;;;;;;5052172;28;20170;-59
2023/06/27 06:36:58;;;;;;;0.00;0.00;;;26.10;73.20;;;;;;5052501;28;20228;-61
2023/06/27 06:39:24;;;;;;;0.00;0.00;;;26.50;69.90;;;;;;5043277;28;20185;-61
2023/06/27 06:41:49;;;;;;;0.00;0.00;;;26.70;68.20;;;;;;5032502;28;20178;-61
2023/06/27 06:44:15;;;;;;;0.00;0.00;;;26.70;66.80;;;;;;5032392;28;20729;-61
2023/06/27 06:46:41;;;;;;;0.00;0.00;;;26.50;65.60;;;;;;5032249;28;20218;-61
2023/06/27 06:49:08;;;;;;;0.00;0.00;;;26.10;64.40;;;;;;5032370;28;20167;-59
2023/06/27 06:51:33;;;;;;;0.00;0.00;;;25.80;65.10;;;;;;5031921;28;20222;-58
2023/06/27 06:53:59;;;;;;;0.00;0.00;;;25.50;65.80;;;;;;5032313;28;20224;-58
2023/06/27 06:56:24;;;;;;;0.00;0.00;;;25.40;65.70;;;;;;5032137;28;20748;-58
2023/06/27 06:58:50;;;;;;;0.00;0.00;;;25.50;66.20;;;;;;5031888;28;20174;-60
2023/06/27 07:01:15;;;;;;;0.00;0.00;;;25.50;64.20;;;;;;5032015;28;20182;-60
2023/06/27 07:03:41;;;;;;;0.00;0.00;;;25.50;63.60;;;;;;5031540;28;20185;-60
2023/06/27 07:06:07;;;;;;;0.00;0.00;;;25.30;64.20;;;;;;5031774;28;20182;-60
2023/06/27 07:08:33;;;;;;;0.00;0.00;;;25.10;64.40;;;;;;5031631;28;20178;-60
2023/06/27 07:10:59;;;;;;;0.00;0.00;;;24.80;64.00;;;;;;5030448;28;20213;-60
2023/06/27 07:13:24;;;;;;;0.00;0.00;;;24.50;62.50;;;;;;5031608;28;20173;-60
2023/06/27 07:15:50;;;;;;;0.00;0.00;;;24.10;63.50;;;;;;5031356;28;20184;-60
2023/06/27 07:18:15;;;;;;;0.00;0.00;;;23.90;64.60;;;;;;5031614;28;20178;-60
2023/06/27 07:20:41;;;;;;;0.00;0.00;;;23.70;64.70;;;;;;5031656;28;20201;-61
2023/06/27 07:23:06;;;;;;;0.00;0.00;;;23.50;66.00;;;;;;5031672;28;20182;-60
2023/06/27 07:25:32;;;;;;;0.00;0.00;;;23.30;66.30;;;;;;5031351;28;20178;-60
2023/06/27 07:27:57;;;;;;;0.00;0.00;;;23.30;66.50;;;;;;5031077;28;20680;-60
2023/06/27 07:30:23;;;;;;;0.00;0.00;;;23.20;66.40;;;;;;5031314;28;20174;-60
2023/06/27 07:32:48;;;;;;;0.00;0.00;;;23.30;65.90;;;;;;5031439;28;20182;-60
2023/06/27 07:35:14;;;;;;;0.00;0.00;;;23.60;66.50;;;;;;5030675;28;20170;-60
2023/06/27 07:37:39;;;;;;;0.00;0.00;;;24.20;64.40;;;;;;5031112;28;20206;-60
2023/06/27 07:40:07;;;;;;;0.00;0.00;;;24.80;63.30;;;;;;5039613;28;20626;-60
2023/06/27 07:42:33;;;;;;;0.00;0.00;;;25.40;62.70;;;;;;5030951;28;20190;-60
2023/06/27 07:44:58;;;;;;;0.00;0.00;;;25.80;62.30;;;;;;5031007;28;20681;-60
2023/06/27 07:47:24;;;;;;;0.00;0.00;;;26.10;61.10;;;;;;5031034;28;20189;-60
2023/06/27 07:49:49;;;;;;;0.00;0.00;;;26.30;59.40;;;;;;5030224;28;20193;-60
2023/06/27 07:52:15;;;;;;;0.00;0.00;;;26.40;58.30;;;;;;5030671;28;20222;-60
2023/06/27 07:54:41;;;;;;;0.00;0.00;;;26.30;57.80;;;;;;5030786;28;20189;-60
2023/06/27 07:57:06;;;;;;;0.00;0.00;;;26.20;58.30;;;;;;5031201;28;20185;-60
2023/06/27 07:59:32;;;;;;;0.00;0.00;;;25.90;57.80;;;;;;5030878;28;20178;-60
2023/06/27 08:01:58;;;;;;;0.00;0.00;;;25.70;57.50;;;;;;5031159;28;20166;-60
2023/06/27 08:04:24;;;;;;;0.00;0.00;;;25.60;57.60;;;;;;5031058;28;20177;-61
2023/06/27 08:06:50;;;;;;;0.00;0.00;;;25.50;57.90;;;;;;5031024;28;20186;-60
2023/06/27 08:09:15;;;;;;;0.00;0.00;;;25.40;58.20;;;;;;5030995;28;20181;-60
2023/06/27 08:11:41;;;;;;;0.00;0.00;;;25.20;59.10;;;;;;5030668;28;20673;-60
2023/06/27 08:14:07;;;;;;;0.00;0.00;;;25.00;58.80;;;;;;5031014;28;20231;-60
2023/06/27 08:16:33;;;;;;;0.00;0.00;;;25.00;58.50;;;;;;5030683;28;20625;-60
2023/06/27 08:18:59;;;;;;;0.00;0.00;;;25.00;57.70;;;;;;5030993;28;20680;-61
2023/06/27 08:21:24;;;;;;;0.00;0.00;;;24.90;57.60;;;;;;5030738;28;20210;-60
2023/06/27 08:23:50;;;;;;;0.00;0.00;;;24.80;58.40;;;;;;5030673;28;20567;-60
2023/06/27 08:26:16;;;;;;;0.00;0.00;;;24.90;57.20;;;;;;5030695;28;20185;-60
2023/06/27 08:28:42;;;;;;;0.00;0.00;;;25.00;57.10;;;;;;5030489;28;20225;-60
2023/06/27 08:31:08;;;;;;;0.00;0.00;;;24.90;57.20;;;;;;5030651;28;20609;-60
2023/06/27 08:33:34;;;;;;;0.00;0.00;;;25.00;57.60;;;;;;5030394;28;20185;-60
2023/06/27 08:35:59;;;;;;;0.00;0.00;;;25.00;57.30;;;;;;5030679;28;20170;-60
2023/06/27 08:38:25;;;;;;;0.00;0.00;;;25.10;57.80;;;;;;5032189;28;20201;-60
2023/06/27 08:40:55;;;;;;;0.00;0.00;;;25.30;58.20;;;;;;5050510;28;20169;-60
2023/06/27 08:43:21;;;;;;;0.00;0.00;;;25.70;57.60;;;;;;5050537;28;20181;-60
2023/06/27 08:45:48;;;;;;;0.00;0.00;;;26.20;58.00;;;;;;5050488;28;20656;-60
2023/06/27 08:48:16;;;;;;;0.00;0.00;;;27.00;56.80;;;;;;5052949;28;20555;-60
2023/06/27 08:50:42;;;;;;;0.00;0.00;;;27.60;56.30;;;;;;5054082;28;20215;-60
2023/06/27 08:53:13;;;;;;;0.00;0.00;;;28.40;54.70;;;;;;5054489;28;20649;-60
2023/06/27 08:55:44;;;;;;;0.00;0.00;;;28.80;54.20;;;;;;5054469;28;20169;-60
2023/06/27 08:58:14;;;;;;;0.00;0.00;;;29.20;52.10;;;;;;5054370;28;20181;-60
2023/06/27 09:00:39;;;;;;;0.00;0.00;;;29.20;50.10;;;;;;5054329;28;20177;-60
2023/06/27 09:03:06;;;;;;;0.00;0.00;;;28.80;49.90;;;;;;5054246;28;20174;-60
2023/06/27 09:05:35;;;;;;;0.00;0.00;;;28.80;51.80;;;;;;5053879;28;20184;-60
2023/06/27 09:08:01;;;;;;;0.00;0.00;;;29.00;50.70;;;;;;5054208;28;20293;-60
2023/06/27 09:10:28;;;;;;;0.00;0.00;;;29.10;50.70;;;;;;5053916;28;20276;-60
2023/06/27 09:12:56;;;;;;;0.00;0.00;;;29.30;49.50;;;;;;5053934;28;20636;-60
2023/06/27 09:15:22;;;;;;;0.00;0.00;;;29.40;49.60;;;;;;5053953;28;20279;-60
2023/06/27 09:17:48;;;;;;;0.00;0.00;;;29.50;47.80;;;;;;5053937;28;20272;-60
2023/06/27 09:20:18;;;;;;;0.00;0.00;;;29.60;48.20;;;;;;5053865;28;20184;-60
2023/06/27 09:22:43;;;;;;;0.00;0.00;;;29.70;47.20;;;;;;5054004;28;20165;-60
2023/06/27 09:25:10;;;;;;;0.00;0.00;;;29.90;47.50;;;;;;5053740;28;20551;-60
2023/06/27 09:27:37;;;;;;;0.00;0.00;;;30.10;47.80;;;;;;5053377;28;20225;-60
2023/06/27 09:30:04;;;;;;;0.00;0.00;;;30.00;46.70;;;;;;5053559;28;20185;-60
2023/06/27 09:32:30;;;;;;;0.00;0.00;;;29.90;46.20;;;;;;5053081;28;20699;-60
2023/06/27 09:34:55;;;;;;;0.00;0.00;;;29.80;46.00;;;;;;5053706;28;20180;-60
2023/06/27 09:37:27;;;;;;;0.00;0.00;;;29.60;46.80;;;;;;5053393;28;20181;-60
2023/06/27 09:39:54;;;;;;;0.00;0.00;;;29.60;47.60;;;;;;5046403;28;20273;-60
2023/06/27 09:42:19;;;;;;;0.00;0.00;;;29.70;47.80;;;;;;5033630;28;20181;-61
2023/06/27 09:44:45;;;;;;;0.00;0.00;;;29.80;47.40;;;;;;5049894;28;20526;-60
2023/06/27 09:47:10;;;;;;;0.00;0.00;;;30.00;46.80;;;;;;5052843;28;20268;-60
2023/06/27 09:49:41;;;;;;;0.00;0.00;;;29.80;46.70;;;;;;5033174;28;20170;-60
2023/06/27 09:52:10;;;;;;;0.00;0.00;;;29.40;45.50;;;;;;5036106;28;20272;-60
2023/06/27 09:54:44;;;;;;;0.00;0.00;;;29.30;47.30;;;;;;5033430;28;20169;-60
2023/06/27 09:57:14;;;;;;;0.00;0.00;;;29.20;47.20;;;;;;5033381;28;20174;-60
2023/06/27 09:59:40;;;;;;;0.00;0.00;;;29.10;47.30;;;;;;5033167;28;20642;-60
2023/06/27 10:02:15;;;;;;;0.00;0.00;;;28.70;47.20;;;;;;5033209;28;20176;-60
2023/06/27 10:04:40;;;;;;;0.00;0.00;;;28.40;48.10;;;;;;5033036;28;20251;-60
2023/06/27 10:07:08;;;;;;;0.00;0.00;;;28.00;48.40;;;;;;5033287;28;21269;-60
2023/06/27 10:09:37;;;;;;;0.00;0.00;;;27.70;48.20;;;;;;5032827;28;20221;-60
2023/06/27 10:12:04;;;;;;;0.00;0.00;;;27.90;48.90;;;;;;5033061;28;20224;-60
2023/06/27 10:14:31;;;;;;;0.00;0.00;;;28.00;48.80;;;;;;5032712;28;20209;-60
2023/06/27 10:16:57;;;;;;;0.00;0.00;;;27.70;48.70;;;;;;5032921;28;20224;-60
2023/06/27 10:19:23;;;;;;;0.00;0.00;;;27.50;49.00;;;;;;5032825;28;20713;-60
2023/06/27 10:21:49;;;;;;;0.00;0.00;;;27.40;49.80;;;;;;5032854;28;20174;-60
2023/06/27 10:24:15;;;;;;;0.00;0.00;;;27.30;50.70;;;;;;5032826;28;20170;-60
2023/06/27 10:26:50;;;;;;;0.00;0.00;;;27.20;50.00;;;;;;5032522;28;21861;-60
2023/06/27 10:29:15;;;;;;;0.00;0.00;;;27.30;50.80;;;;;;5032556;28;20193;-60
2023/06/27 10:31:45;;;;;;;0.00;0.00;;;27.30;51.30;;;;;;5032507;28;20562;-60
2023/06/27 10:34:20;;;;;;;0.00;0.00;;;27.30;51.50;;;;;;5032494;28;20511;-60
2023/06/27 10:37:05;;;;;;;0.00;0.00;;;27.50;50.80;;;;;;5032633;28;20260;-60
2023/06/27 10:39:36;;;;;;;0.00;0.00;;;27.90;50.50;;;;;;5032367;28;20518;-60
2023/06/27 10:42:05;;;;;;;0.00;0.00;;;28.20;50.30;;;;;;5032590;28;20175;-60
2023/06/27 10:44:34;;;;;;;0.00;0.00;;;28.40;50.00;;;;;;5032277;28;20572;-60
2023/06/27 10:47:18;;;;;;;0.00;0.00;;;28.30;48.80;;;;;;5032443;28;20230;-60
2023/06/27 10:49:48;;;;;;;0.00;0.00;;;28.60;48.00;;;;;;5032241;28;20178;-60
2023/06/27 10:52:20;;;;;;;0.00;0.00;;;28.80;47.80;;;;;;5034780;28;20711;-60
2023/06/27 10:55:06;;;;;;;0.00;0.00;;;28.90;47.90;;;;;;5032363;28;20185;-60
2023/06/27 10:57:41;;;;;;;0.00;0.00;;;28.80;47.20;;;;;;5031702;28;20626;-61
2023/06/27 11:00:23;;;;;;;0.00;0.00;;;28.60;47.80;;;;;;5031771;28;20174;-58
2023/06/27 11:02:49;;;;;;;0.00;0.00;;;28.70;48.60;;;;;;5031598;28;20589;-58
2023/06/27 11:05:18;;;;;;;0.00;0.00;;;28.80;47.90;;;;;;5031876;28;20181;-58
2023/06/27 11:07:58;;;;;;;0.00;0.00;;;28.10;48.30;;;;;;5032071;28;20166;-58
2023/06/27 11:10:29;;;;;;;0.00;0.00;;;27.70;48.50;;;;;;5031277;28;20170;-58
2023/06/27 11:13:14;;;;;;;0.00;0.00;;;27.80;49.50;;;;;;5031763;28;20186;-58
2023/06/27 11:15:42;;;;;;;0.00;0.00;;;27.50;47.80;;;;;;5031513;28;20186;-58
2023/06/27 11:18:08;;;;;;;0.00;0.00;;;27.50;48.70;;;;;;5031910;28;20178;-58
2023/06/27 11:20:35;;;;;;;0.00;0.00;;;27.60;49.00;;;;;;5031543;28;20247;-58
2023/06/27 11:23:04;;;;;;;0.00;0.00;;;27.90;49.40;;;;;;5031557;28;20185;-58
2023/06/27 11:25:42;;;;;;;0.00;0.00;;;28.10;49.20;;;;;;5031529;28;20227;-58
2023/06/27 11:28:11;;;;;;;0.00;0.00;;;27.90;48.00;;;;;;5031562;28;20229;-58
2023/06/27 11:30:38;;;;;;;0.00;0.00;;;27.80;48.40;;;;;;5031475;28;20193;-58
2023/06/27 11:33:04;;;;;;;0.00;0.00;;;27.90;48.80;;;;;;5031669;28;20189;-58
2023/06/27 11:35:31;;;;;;;0.00;0.00;;;28.10;49.10;;;;;;5031299;28;20574;-58
2023/06/27 11:37:57;;;;;;;0.00;0.00;;;28.50;48.80;;;;;;5031226;28;20265;-58
2023/06/27 11:40:27;;;;;;;0.10;0.10;;;28.80;47.50;;;;;;5031253;28;20309;-58
2023/06/27 11:43:03;;;;;;;0.00;0.00;;;28.80;48.80;;;;;;5031246;28;20189;-58
2023/06/27 11:45:31;;;;;;;0.00;0.00;;;28.70;48.20;;;;;;5031167;28;20189;-58
2023/06/27 11:47:57;;;;;;;0.00;0.00;;;28.80;46.40;;;;;;5031167;28;20174;-58
2023/06/27 11:50:23;;;;;;;0.00;0.00;;;28.90;46.50;;;;;;5031592;28;20178;-58
2023/06/27 11:52:50;;;;;;;0.00;0.00;;;28.70;47.20;;;;;;5042206;28;20212;-58
2023/06/27 11:55:15;;;;;;;0.00;0.00;;;28.10;47.80;;;;;;5051134;28;20247;-58
2023/06/27 11:57:47;;;;;;;0.00;0.00;;;28.00;48.50;;;;;;5050775;28;20629;-58
2023/06/27 12:00:25;;;;;;;0.00;0.00;;;27.80;49.20;;;;;;5050960;28;20523;-58
2023/06/27 12:02:52;;;;;;;0.00;0.00;;;27.90;48.60;;;;;;5050957;28;20537;-58
2023/06/27 12:05:20;;;;;;;0.00;0.00;;;28.20;49.10;;;;;;5050926;28;20666;-59
2023/06/27 12:08:06;;;;;;;0.00;0.00;;;28.60;47.80;;;;;;5051070;28;20664;-58
2023/06/27 12:10:33;;;;;;;0.00;0.00;;;28.50;47.90;;;;;;5050755;28;20543;-58
2023/06/27 12:13:02;;;;;;;0.00;0.00;;;28.30;47.80;;;;;;5050869;28;20319;-58
2023/06/27 12:15:28;;;;;;;0.00;0.00;;;28.60;48.40;;;;;;5050935;28;20181;-58
2023/06/27 12:18:01;;;;;;;0.00;0.00;;;28.50;48.10;;;;;;5050876;28;20181;-58
2023/06/27 12:20:40;;;;;;;0.00;0.00;;;28.40;48.70;;;;;;5050702;28;20253;-58
2023/06/27 12:23:07;;;;;;;0.00;0.00;;;28.40;48.80;;;;;;5053281;28;20264;-58
2023/06/27 12:25:32;;;;;;;0.00;0.00;;;28.20;47.00;;;;;;5054813;28;20568;-58
2023/06/27 12:27:58;;;;;;;0.00;0.00;;;28.00;47.00;;;;;;5054930;28;20243;-58
2023/06/27 12:30:24;;;;;;;0.00;0.00;;;28.10;48.00;;;;;;5054903;28;20169;-58
2023/06/27 12:32:49;;;;;;;0.00;0.00;;;28.00;48.10;;;;;;5054657;28;20177;-58
2023/06/27 12:35:17;;;;;;;0.00;0.00;;;27.50;48.40;;;;;;5054790;28;20204;-58
2023/06/27 12:37:47;;;;;;;0.00;0.00;;;27.20;49.60;;;;;;5054542;28;20181;-58
2023/06/27 12:40:15;;;;;;;0.00;0.00;;;26.80;49.90;;;;;;5054585;28;20182;-58
2023/06/27 12:42:42;;;;;;;0.00;0.00;;;26.70;50.60;;;;;;5054442;28;20228;-58
2023/06/27 12:45:11;;;;;;;0.00;0.00;;;26.80;50.30;;;;;;5054631;28;20600;-58
2023/06/27 12:47:41;;;;;;;0.00;0.00;;;27.10;50.50;;;;;;5054229;28;20176;-58
2023/06/27 12:50:11;;;;;;;0.00;0.00;;;27.40;48.90;;;;;;5054385;28;20177;-58
2023/06/27 12:52:37;;;;;;;0.00;0.00;;;27.60;48.50;;;;;;5037630;28;20214;-58